sensor_id;sensor_type;location;lat;lon;timestamp;temperature;humidity
9393;DHT22;4736;52.508;13.422;2023-08-21T00:01:31;21.90;73.10
9393;DHT22;4736;52.508;13.422;2023-08-21T00:04:34;21.90;73.00
9393;DHT22;4736;52.508;13.422;2023-08-21T00:07:37;21.70;73.20
9393;DHT22;4736;52.508;13.422;2023-08-21T00:10:40;21.70;73.00
9393;DHT22;4736;52.508;13.422;2023-08-21T00:13:43;21.70;73.00
9393;DHT22;4736;52.508;13.422;2023-08-21T00:16:51;21.70;73.00
9393;DHT22;4736;52.508;13.422;2023-08-21T00:19:54;21.60;73.10
9393;DHT22;4736;52.508;13.422;2023-08-21T00:22:57;21.60;73.10
9393;DHT22;4736;52.508;13.422;2023-08-21T00:26:00;21.50;73.20
9393;DHT22;4736;52.508;13.422;2023-08-21T00:29:04;21.50;73.60
9393;DHT22;4736;52.508;13.422;2023-08-21T00:32:08;21.50;73.70
9393;DHT22;4736;52.508;13.422;2023-08-21T00:35:13;21.40;74.00
9393;DHT22;4736;52.508;13.422;2023-08-21T00:38:16;21.40;74.20
9393;DHT22;4736;52.508;13.422;2023-08-21T00:41:22;21.40;74.40
9393;DHT22;4736;52.508;13.422;2023-08-21T00:44:25;21.40;74.70
9393;DHT22;4736;52.508;13.422;2023-08-21T00:47:30;21.30;74.60
9393;DHT22;4736;52.508;13.422;2023-08-21T00:50:33;21.30;74.70
9393;DHT22;4736;52.508;13.422;2023-08-21T00:53:36;21.30;74.70
9393;DHT22;4736;52.508;13.422;2023-08-21T00:56:39;21.20;74.80
9393;DHT22;4736;52.508;13.422;2023-08-21T00:59:43;21.20;74.90
9393;DHT22;4736;52.508;13.422;2023-08-21T01:02:47;21.20;75.20
9393;DHT22;4736;52.508;13.422;2023-08-21T01:05:50;21.10;75.10
9393;DHT22;4736;52.508;13.422;2023-08-21T01:09:00;21.10;75.10
9393;DHT22;4736;52.508;13.422;2023-08-21T01:12:15;21.10;75.50
9393;DHT22;4736;52.508;13.422;2023-08-21T01:15:20;21.10;75.50
9393;DHT22;4736;52.508;13.422;2023-08-21T01:18:27;21.10;75.60
9393;DHT22;4736;52.508;13.422;2023-08-21T01:21:31;21.10;75.50
9393;DHT22;4736;52.508;13.422;2023-08-21T01:24:35;21.10;75.90
9393;DHT22;4736;52.508;13.422;2023-08-21T01:27:40;21.10;75.90
9393;DHT22;4736;52.508;13.422;2023-08-21T01:30:44;21.10;75.90
9393;DHT22;4736;52.508;13.422;2023-08-21T01:33:51;21.10;76.00
9393;DHT22;4736;52.508;13.422;2023-08-21T01:36:55;21.20;76.00
9393;DHT22;4736;52.508;13.422;2023-08-21T01:40:00;21.20;75.80
9393;DHT22;4736;52.508;13.422;2023-08-21T01:43:03;21.30;75.90
9393;DHT22;4736;52.508;13.422;2023-08-21T01:46:07;21.30;75.90
9393;DHT22;4736;52.508;13.422;2023-08-21T01:49:10;21.30;75.80
9393;DHT22;4736;52.508;13.422;2023-08-21T01:52:13;21.30;75.80
9393;DHT22;4736;52.508;13.422;2023-08-21T01:55:17;21.30;75.80
9393;DHT22;4736;52.508;13.422;2023-08-21T01:58:21;21.40;75.80
9393;DHT22;4736;52.508;13.422;2023-08-21T02:01:23;21.40;75.80
9393;DHT22;4736;52.508;13.422;2023-08-21T02:04:27;21.40;75.70
9393;DHT22;4736;52.508;13.422;2023-08-21T02:07:30;21.40;75.70
9393;DHT22;4736;52.508;13.422;2023-08-21T02:10:34;21.40;75.50
9393;DHT22;4736;52.508;13.422;2023-08-21T02:13:37;21.40;75.60
9393;DHT22;4736;52.508;13.422;2023-08-21T02:16:40;21.40;75.60
9393;DHT22;4736;52.508;13.422;2023-08-21T02:19:43;21.40;75.50
9393;DHT22;4736;52.508;13.422;2023-08-21T02:22:46;21.30;75.60
9393;DHT22;4736;52.508;13.422;2023-08-21T02:25:51;21.30;75.70
9393;DHT22;4736;52.508;13.422;2023-08-21T02:28:55;21.20;75.80
9393;DHT22;4736;52.508;13.422;2023-08-21T02:31:59;21.20;75.80
9393;DHT22;4736;52.508;13.422;2023-08-21T02:35:02;21.10;75.90
9393;DHT22;4736;52.508;13.422;2023-08-21T02:38:08;21.10;75.80
9393;DHT22;4736;52.508;13.422;2023-08-21T02:41:12;21.10;75.80
9393;DHT22;4736;52.508;13.422;2023-08-21T02:44:18;21.10;75.80
9393;DHT22;4736;52.508;13.422;2023-08-21T02:47:21;21.20;75.80
9393;DHT22;4736;52.508;13.422;2023-08-21T02:50:25;21.10;75.70
9393;DHT22;4736;52.508;13.422;2023-08-21T02:53:28;21.10;75.80
9393;DHT22;4736;52.508;13.422;2023-08-21T02:56:32;21.10;75.70
9393;DHT22;4736;52.508;13.422;2023-08-21T02:59:35;21.10;75.70
9393;DHT22;4736;52.508;13.422;2023-08-21T03:02:38;21.10;75.70
9393;DHT22;4736;52.508;13.422;2023-08-21T03:05:45;21.10;75.60
9393;DHT22;4736;52.508;13.422;2023-08-21T03:08:48;21.10;75.70
9393;DHT22;4736;52.508;13.422;2023-08-21T03:11:52;21.10;75.70
9393;DHT22;4736;52.508;13.422;2023-08-21T03:14:56;21.10;75.70
9393;DHT22;4736;52.508;13.422;2023-08-21T03:17:59;21.10;75.70
9393;DHT22;4736;52.508;13.422;2023-08-21T03:21:02;21.10;75.70
9393;DHT22;4736;52.508;13.422;2023-08-21T03:24:06;21.10;75.70
9393;DHT22;4736;52.508;13.422;2023-08-21T03:27:11;21.10;75.50
9393;DHT22;4736;52.508;13.422;2023-08-21T03:30:14;21.10;75.50
9393;DHT22;4736;52.508;13.422;2023-08-21T03:33:17;21.10;75.40
9393;DHT22;4736;52.508;13.422;2023-08-21T03:36:21;21.20;75.00
9393;DHT22;4736;52.508;13.422;2023-08-21T03:39:32;21.20;74.90
9393;DHT22;4736;52.508;13.422;2023-08-21T03:42:37;21.20;74.80
9393;DHT22;4736;52.508;13.422;2023-08-21T03:45:41;21.20;74.70
9393;DHT22;4736;52.508;13.422;2023-08-21T03:48:44;21.10;74.80
9393;DHT22;4736;52.508;13.422;2023-08-21T03:51:47;21.10;74.90
9393;DHT22;4736;52.508;13.422;2023-08-21T03:54:50;21.10;74.90
9393;DHT22;4736;52.508;13.422;2023-08-21T03:57:54;21.10;74.90
9393;DHT22;4736;52.508;13.422;2023-08-21T04:00:57;21.10;74.90
9393;DHT22;4736;52.508;13.422;2023-08-21T04:04:00;21.00;75.00
9393;DHT22;4736;52.508;13.422;2023-08-21T04:07:04;21.00;75.00
9393;DHT22;4736;52.508;13.422;2023-08-21T04:10:08;21.00;75.00
9393;DHT22;4736;52.508;13.422;2023-08-21T04:13:12;21.10;74.90
9393;DHT22;4736;52.508;13.422;2023-08-21T04:16:15;21.00;74.80
9393;DHT22;4736;52.508;13.422;2023-08-21T04:19:19;21.10;74.70
9393;DHT22;4736;52.508;13.422;2023-08-21T04:22:22;21.10;74.40
9393;DHT22;4736;52.508;13.422;2023-08-21T04:25:25;21.10;74.30
9393;DHT22;4736;52.508;13.422;2023-08-21T04:28:31;21.10;74.10
9393;DHT22;4736;52.508;13.422;2023-08-21T04:31:34;21.20;73.90
9393;DHT22;4736;52.508;13.422;2023-08-21T04:34:37;21.30;73.60
9393;DHT22;4736;52.508;13.422;2023-08-21T04:37:46;21.30;73.50
9393;DHT22;4736;52.508;13.422;2023-08-21T04:40:49;21.30;73.60
9393;DHT22;4736;52.508;13.422;2023-08-21T04:43:54;21.30;73.60
9393;DHT22;4736;52.508;13.422;2023-08-21T04:46:57;21.40;73.40
9393;DHT22;4736;52.508;13.422;2023-08-21T04:50:00;21.40;73.20
9393;DHT22;4736;52.508;13.422;2023-08-21T04:53:04;21.40;73.50
9393;DHT22;4736;52.508;13.422;2023-08-21T04:56:07;21.40;73.50
9393;DHT22;4736;52.508;13.422;2023-08-21T04:59:11;21.40;73.50
9393;DHT22;4736;52.508;13.422;2023-08-21T05:02:14;21.40;73.90
9393;DHT22;4736;52.508;13.422;2023-08-21T05:05:17;21.50;73.80
9393;DHT22;4736;52.508;13.422;2023-08-21T05:08:23;21.50;73.70
9393;DHT22;4736;52.508;13.422;2023-08-21T05:11:26;21.50;73.60
9393;DHT22;4736;52.508;13.422;2023-08-21T05:14:30;21.50;73.60
9393;DHT22;4736;52.508;13.422;2023-08-21T05:17:33;21.50;73.50
9393;DHT22;4736;52.508;13.422;2023-08-21T05:20:36;21.50;73.50
9393;DHT22;4736;52.508;13.422;2023-08-21T05:23:39;21.40;73.70
9393;DHT22;4736;52.508;13.422;2023-08-21T05:26:42;21.40;73.80
9393;DHT22;4736;52.508;13.422;2023-08-21T05:29:46;21.40;74.00
9393;DHT22;4736;52.508;13.422;2023-08-21T05:32:51;21.50;74.00
9393;DHT22;4736;52.508;13.422;2023-08-21T05:35:56;21.60;73.80
9393;DHT22;4736;52.508;13.422;2023-08-21T05:39:02;21.70;73.60
9393;DHT22;4736;52.508;13.422;2023-08-21T05:42:07;21.80;73.40
9393;DHT22;4736;52.508;13.422;2023-08-21T05:45:11;21.70;73.40
9393;DHT22;4736;52.508;13.422;2023-08-21T05:48:14;21.70;73.60
9393;DHT22;4736;52.508;13.422;2023-08-21T05:51:18;21.70;73.70
9393;DHT22;4736;52.508;13.422;2023-08-21T05:54:21;22.00;73.60
9393;DHT22;4736;52.508;13.422;2023-08-21T05:57:24;22.20;72.60
9393;DHT22;4736;52.508;13.422;2023-08-21T06:00:28;22.30;72.00
9393;DHT22;4736;52.508;13.422;2023-08-21T06:03:32;22.30;72.20
9393;DHT22;4736;52.508;13.422;2023-08-21T06:06:35;22.50;72.30
9393;DHT22;4736;52.508;13.422;2023-08-21T06:09:38;22.60;71.70
9393;DHT22;4736;52.508;13.422;2023-08-21T06:12:43;22.60;71.60
9393;DHT22;4736;52.508;13.422;2023-08-21T06:15:47;22.70;71.30
9393;DHT22;4736;52.508;13.422;2023-08-21T06:18:50;22.80;71.00
9393;DHT22;4736;52.508;13.422;2023-08-21T06:21:54;22.70;70.70
9393;DHT22;4736;52.508;13.422;2023-08-21T06:24:57;22.90;70.80
9393;DHT22;4736;52.508;13.422;2023-08-21T06:28:00;23.10;70.10
9393;DHT22;4736;52.508;13.422;2023-08-21T06:31:04;23.00;69.60
9393;DHT22;4736;52.508;13.422;2023-08-21T06:34:09;23.00;69.60
9393;DHT22;4736;52.508;13.422;2023-08-21T06:37:12;23.00;68.90
9393;DHT22;4736;52.508;13.422;2023-08-21T06:40:15;23.00;69.30
9393;DHT22;4736;52.508;13.422;2023-08-21T06:43:19;23.00;69.30
9393;DHT22;4736;52.508;13.422;2023-08-21T06:46:24;23.00;69.30
9393;DHT22;4736;52.508;13.422;2023-08-21T06:49:28;23.00;69.30
9393;DHT22;4736;52.508;13.422;2023-08-21T06:52:31;23.20;68.70
9393;DHT22;4736;52.508;13.422;2023-08-21T06:55:34;23.40;68.00
9393;DHT22;4736;52.508;13.422;2023-08-21T06:58:37;23.40;68.00
9393;DHT22;4736;52.508;13.422;2023-08-21T07:01:41;23.40;68.10
9393;DHT22;4736;52.508;13.422;2023-08-21T07:04:44;23.60;67.90
9393;DHT22;4736;52.508;13.422;2023-08-21T07:07:48;23.70;67.60
9393;DHT22;4736;52.508;13.422;2023-08-21T07:10:51;23.80;67.60
9393;DHT22;4736;52.508;13.422;2023-08-21T07:13:55;24.00;67.50
9393;DHT22;4736;52.508;13.422;2023-08-21T07:16:59;24.20;66.60
9393;DHT22;4736;52.508;13.422;2023-08-21T07:20:03;24.40;65.60
9393;DHT22;4736;52.508;13.422;2023-08-21T07:23:06;24.60;65.20
9393;DHT22;4736;52.508;13.422;2023-08-21T07:26:09;24.60;65.60
9393;DHT22;4736;52.508;13.422;2023-08-21T07:29:12;24.70;63.90
9393;DHT22;4736;52.508;13.422;2023-08-21T07:32:16;24.90;63.10
9393;DHT22;4736;52.508;13.422;2023-08-21T07:35:20;25.00;62.50
9393;DHT22;4736;52.508;13.422;2023-08-21T07:38:23;25.10;62.50
9393;DHT22;4736;52.508;13.422;2023-08-21T07:41:26;25.10;61.90
9393;DHT22;4736;52.508;13.422;2023-08-21T07:44:29;25.00;62.00
9393;DHT22;4736;52.508;13.422;2023-08-21T07:47:34;24.80;62.10
9393;DHT22;4736;52.508;13.422;2023-08-21T07:50:38;24.80;62.60
9393;DHT22;4736;52.508;13.422;2023-08-21T07:53:41;24.90;61.50
9393;DHT22;4736;52.508;13.422;2023-08-21T07:56:44;25.00;61.50
9393;DHT22;4736;52.508;13.422;2023-08-21T07:59:47;25.00;61.00
9393;DHT22;4736;52.508;13.422;2023-08-21T08:02:52;25.30;61.30
9393;DHT22;4736;52.508;13.422;2023-08-21T08:05:55;25.60;61.10
9393;DHT22;4736;52.508;13.422;2023-08-21T08:09:00;25.80;58.60
9393;DHT22;4736;52.508;13.422;2023-08-21T08:12:05;26.00;58.30
9393;DHT22;4736;52.508;13.422;2023-08-21T08:15:10;26.00;56.90
9393;DHT22;4736;52.508;13.422;2023-08-21T08:18:14;25.90;55.50
9393;DHT22;4736;52.508;13.422;2023-08-21T08:21:18;25.80;56.50
9393;DHT22;4736;52.508;13.422;2023-08-21T08:24:22;25.70;56.60
9393;DHT22;4736;52.508;13.422;2023-08-21T08:27:25;25.70;56.20
9393;DHT22;4736;52.508;13.422;2023-08-21T08:30:28;25.60;56.00
9393;DHT22;4736;52.508;13.422;2023-08-21T08:33:33;25.50;56.10
9393;DHT22;4736;52.508;13.422;2023-08-21T08:36:36;25.40;55.50
9393;DHT22;4736;52.508;13.422;2023-08-21T08:39:39;25.30;56.20
9393;DHT22;4736;52.508;13.422;2023-08-21T08:42:42;25.30;56.90
9393;DHT22;4736;52.508;13.422;2023-08-21T08:45:45;25.30;56.50
9393;DHT22;4736;52.508;13.422;2023-08-21T08:48:52;25.30;56.40
9393;DHT22;4736;52.508;13.422;2023-08-21T08:51:55;25.50;57.30
9393;DHT22;4736;52.508;13.422;2023-08-21T08:54:58;25.40;53.40
9393;DHT22;4736;52.508;13.422;2023-08-21T08:58:01;25.50;53.70
9393;DHT22;4736;52.508;13.422;2023-08-21T09:01:04;25.50;52.50
9393;DHT22;4736;52.508;13.422;2023-08-21T09:04:09;25.50;52.30
9393;DHT22;4736;52.508;13.422;2023-08-21T09:07:12;25.60;50.90
9393;DHT22;4736;52.508;13.422;2023-08-21T09:10:15;25.70;52.00
9393;DHT22;4736;52.508;13.422;2023-08-21T09:13:19;26.10;50.70
9393;DHT22;4736;52.508;13.422;2023-08-21T09:16:24;26.40;48.70
9393;DHT22;4736;52.508;13.422;2023-08-21T09:19:29;26.70;49.00
9393;DHT22;4736;52.508;13.422;2023-08-21T09:22:32;27.10;47.20
9393;DHT22;4736;52.508;13.422;2023-08-21T09:25:35;27.30;46.50
9393;DHT22;4736;52.508;13.422;2023-08-21T09:28:39;27.40;45.70
9393;DHT22;4736;52.508;13.422;2023-08-21T09:31:42;27.40;46.60
9393;DHT22;4736;52.508;13.422;2023-08-21T09:34:49;27.40;47.90
9393;DHT22;4736;52.508;13.422;2023-08-21T09:37:52;27.30;47.70
9393;DHT22;4736;52.508;13.422;2023-08-21T09:40:55;27.00;49.10
9393;DHT22;4736;52.508;13.422;2023-08-21T09:43:59;26.90;50.00
9393;DHT22;4736;52.508;13.422;2023-08-21T09:47:02;26.80;50.10
9393;DHT22;4736;52.508;13.422;2023-08-21T09:50:07;26.90;49.60
9393;DHT22;4736;52.508;13.422;2023-08-21T09:53:11;27.30;49.90
9393;DHT22;4736;52.508;13.422;2023-08-21T09:56:15;27.40;49.40
9393;DHT22;4736;52.508;13.422;2023-08-21T09:59:19;27.50;49.00
9393;DHT22;4736;52.508;13.422;2023-08-21T10:02:26;27.90;47.90
9393;DHT22;4736;52.508;13.422;2023-08-21T10:05:32;27.90;47.50
9393;DHT22;4736;52.508;13.422;2023-08-21T10:08:37;27.50;48.30
9393;DHT22;4736;52.508;13.422;2023-08-21T10:11:43;27.50;48.20
9393;DHT22;4736;52.508;13.422;2023-08-21T10:14:46;27.60;48.50
9393;DHT22;4736;52.508;13.422;2023-08-21T10:17:49;27.70;48.60
9393;DHT22;4736;52.508;13.422;2023-08-21T10:20:54;27.50;47.90
9393;DHT22;4736;52.508;13.422;2023-08-21T10:24:00;27.40;48.30
9393;DHT22;4736;52.508;13.422;2023-08-21T10:27:03;27.40;48.00
9393;DHT22;4736;52.508;13.422;2023-08-21T10:30:13;27.00;49.40
9393;DHT22;4736;52.508;13.422;2023-08-21T10:33:16;26.90;49.50
9393;DHT22;4736;52.508;13.422;2023-08-21T10:36:50;26.90;48.90
9393;DHT22;4736;52.508;13.422;2023-08-21T10:40:08;26.70;48.40
9393;DHT22;4736;52.508;13.422;2023-08-21T10:43:39;26.90;48.20
9393;DHT22;4736;52.508;13.422;2023-08-21T10:46:52;27.00;47.10
9393;DHT22;4736;52.508;13.422;2023-08-21T10:49:56;27.20;46.90
9393;DHT22;4736;52.508;13.422;2023-08-21T10:53:00;27.00;47.50
9393;DHT22;4736;52.508;13.422;2023-08-21T10:56:05;27.10;47.50
9393;DHT22;4736;52.508;13.422;2023-08-21T10:59:08;27.10;49.60
9393;DHT22;4736;52.508;13.422;2023-08-21T11:02:14;27.20;48.60
9393;DHT22;4736;52.508;13.422;2023-08-21T11:05:17;27.00;49.70
9393;DHT22;4736;52.508;13.422;2023-08-21T11:08:20;27.20;48.40
9393;DHT22;4736;52.508;13.422;2023-08-21T11:11:25;27.20;49.20
9393;DHT22;4736;52.508;13.422;2023-08-21T11:14:28;27.40;49.10
9393;DHT22;4736;52.508;13.422;2023-08-21T11:17:31;27.30;48.80
9393;DHT22;4736;52.508;13.422;2023-08-21T11:20:35;27.50;48.60
9393;DHT22;4736;52.508;13.422;2023-08-21T11:23:40;27.20;48.50
9393;DHT22;4736;52.508;13.422;2023-08-21T11:26:44;27.20;49.80
9393;DHT22;4736;52.508;13.422;2023-08-21T11:29:49;27.30;48.80
9393;DHT22;4736;52.508;13.422;2023-08-21T11:33:04;27.30;48.40
9393;DHT22;4736;52.508;13.422;2023-08-21T11:36:08;27.20;48.30
9393;DHT22;4736;52.508;13.422;2023-08-21T11:39:12;27.10;49.20
9393;DHT22;4736;52.508;13.422;2023-08-21T11:42:16;27.30;48.50
9393;DHT22;4736;52.508;13.422;2023-08-21T11:45:21;27.20;47.20
9393;DHT22;4736;52.508;13.422;2023-08-21T11:48:24;27.50;47.80
9393;DHT22;4736;52.508;13.422;2023-08-21T11:51:27;27.80;47.20
9393;DHT22;4736;52.508;13.422;2023-08-21T11:54:33;28.00;47.00
9393;DHT22;4736;52.508;13.422;2023-08-21T11:57:47;28.00;47.20
9393;DHT22;4736;52.508;13.422;2023-08-21T12:00:51;27.50;47.00
9393;DHT22;4736;52.508;13.422;2023-08-21T12:03:54;27.70;46.20
9393;DHT22;4736;52.508;13.422;2023-08-21T12:06:58;27.90;45.90
9393;DHT22;4736;52.508;13.422;2023-08-21T12:10:01;27.50;46.50
9393;DHT22;4736;52.508;13.422;2023-08-21T12:13:06;27.50;47.10
9393;DHT22;4736;52.508;13.422;2023-08-21T12:16:09;27.60;46.90
9393;DHT22;4736;52.508;13.422;2023-08-21T12:19:12;27.80;46.90
9393;DHT22;4736;52.508;13.422;2023-08-21T12:22:16;27.10;48.40
9393;DHT22;4736;52.508;13.422;2023-08-21T12:25:19;27.20;48.50
9393;DHT22;4736;52.508;13.422;2023-08-21T12:28:23;27.30;48.80
9393;DHT22;4736;52.508;13.422;2023-08-21T12:31:26;27.40;49.00
9393;DHT22;4736;52.508;13.422;2023-08-21T12:34:29;27.40;47.90
9393;DHT22;4736;52.508;13.422;2023-08-21T12:37:32;27.20;49.00
9393;DHT22;4736;52.508;13.422;2023-08-21T12:40:35;27.00;48.90
9393;DHT22;4736;52.508;13.422;2023-08-21T12:43:40;26.80;49.70
9393;DHT22;4736;52.508;13.422;2023-08-21T12:46:44;26.70;49.70
9393;DHT22;4736;52.508;13.422;2023-08-21T12:49:48;26.50;50.50
9393;DHT22;4736;52.508;13.422;2023-08-21T12:52:51;26.40;50.50
9393;DHT22;4736;52.508;13.422;2023-08-21T12:55:54;26.40;50.70
9393;DHT22;4736;52.508;13.422;2023-08-21T12:58:59;26.70;49.60
9393;DHT22;4736;52.508;13.422;2023-08-21T13:02:02;27.10;47.90
9393;DHT22;4736;52.508;13.422;2023-08-21T13:05:07;27.40;47.20
9393;DHT22;4736;52.508;13.422;2023-08-21T13:08:10;27.60;47.00
9393;DHT22;4736;52.508;13.422;2023-08-21T13:11:13;27.50;44.70
9393;DHT22;4736;52.508;13.422;2023-08-21T13:14:18;27.80;45.10
9393;DHT22;4736;52.508;13.422;2023-08-21T13:17:21;27.80;44.00
9393;DHT22;4736;52.508;13.422;2023-08-21T13:20:24;28.00;44.50
9393;DHT22;4736;52.508;13.422;2023-08-21T13:23:29;27.80;43.50
9393;DHT22;4736;52.508;13.422;2023-08-21T13:26:32;27.80;44.10
9393;DHT22;4736;52.508;13.422;2023-08-21T13:29:37;27.50;44.00
9393;DHT22;4736;52.508;13.422;2023-08-21T13:32:42;27.40;43.90
9393;DHT22;4736;52.508;13.422;2023-08-21T13:35:45;27.50;45.10
9393;DHT22;4736;52.508;13.422;2023-08-21T13:38:48;27.70;45.60
9393;DHT22;4736;52.508;13.422;2023-08-21T13:41:51;27.80;46.00
9393;DHT22;4736;52.508;13.422;2023-08-21T13:44:56;27.70;45.70
9393;DHT22;4736;52.508;13.422;2023-08-21T13:47:59;27.60;46.30
9393;DHT22;4736;52.508;13.422;2023-08-21T13:51:02;27.80;47.20
9393;DHT22;4736;52.508;13.422;2023-08-21T13:54:05;28.00;46.80
9393;DHT22;4736;52.508;13.422;2023-08-21T13:57:08;27.90;47.10
9393;DHT22;4736;52.508;13.422;2023-08-21T14:00:13;28.00;46.70
9393;DHT22;4736;52.508;13.422;2023-08-21T14:03:19;28.20;46.20
9393;DHT22;4736;52.508;13.422;2023-08-21T14:06:23;28.10;45.90
9393;DHT22;4736;52.508;13.422;2023-08-21T14:09:26;28.50;45.10
9393;DHT22;4736;52.508;13.422;2023-08-21T14:12:30;28.50;44.80
9393;DHT22;4736;52.508;13.422;2023-08-21T14:15:35;28.40;45.00
9393;DHT22;4736;52.508;13.422;2023-08-21T14:18:38;28.30;45.70
9393;DHT22;4736;52.508;13.422;2023-08-21T14:21:41;28.10;45.90
9393;DHT22;4736;52.508;13.422;2023-08-21T14:24:44;28.10;46.60
9393;DHT22;4736;52.508;13.422;2023-08-21T14:27:47;28.10;45.60
9393;DHT22;4736;52.508;13.422;2023-08-21T14:30:52;27.50;45.40
9393;DHT22;4736;52.508;13.422;2023-08-21T14:33:55;27.80;45.90
9393;DHT22;4736;52.508;13.422;2023-08-21T14:36:59;28.10;45.80
9393;DHT22;4736;52.508;13.422;2023-08-21T14:40:06;28.30;44.90
9393;DHT22;4736;52.508;13.422;2023-08-21T14:43:12;28.50;44.00
9393;DHT22;4736;52.508;13.422;2023-08-21T14:46:16;28.50;44.10
9393;DHT22;4736;52.508;13.422;2023-08-21T14:49:41;28.60;42.80
9393;DHT22;4736;52.508;13.422;2023-08-21T14:52:44;28.70;42.90
9393;DHT22;4736;52.508;13.422;2023-08-21T14:55:47;28.50;43.10
9393;DHT22;4736;52.508;13.422;2023-08-21T14:58:50;28.10;43.10
9393;DHT22;4736;52.508;13.422;2023-08-21T15:01:54;28.00;43.30
9393;DHT22;4736;52.508;13.422;2023-08-21T15:04:58;27.70;44.50
9393;DHT22;4736;52.508;13.422;2023-08-21T15:08:01;27.50;44.20
9393;DHT22;4736;52.508;13.422;2023-08-21T15:11:04;27.30;44.20
9393;DHT22;4736;52.508;13.422;2023-08-21T15:14:10;27.10;44.40
9393;DHT22;4736;52.508;13.422;2023-08-21T15:17:15;27.00;45.00
9393;DHT22;4736;52.508;13.422;2023-08-21T15:20:20;26.90;45.50
9393;DHT22;4736;52.508;13.422;2023-08-21T15:23:24;26.70;46.10
9393;DHT22;4736;52.508;13.422;2023-08-21T15:26:27;26.60;46.00
9393;DHT22;4736;52.508;13.422;2023-08-21T15:29:30;26.60;46.30
9393;DHT22;4736;52.508;13.422;2023-08-21T15:32:34;26.60;46.80
9393;DHT22;4736;52.508;13.422;2023-08-21T15:35:38;26.80;45.80
9393;DHT22;4736;52.508;13.422;2023-08-21T15:38:41;26.90;46.10
9393;DHT22;4736;52.508;13.422;2023-08-21T15:41:44;27.00;45.90
9393;DHT22;4736;52.508;13.422;2023-08-21T15:44:47;27.00;46.00
9393;DHT22;4736;52.508;13.422;2023-08-21T15:47:51;27.20;46.30
9393;DHT22;4736;52.508;13.422;2023-08-21T15:50:54;27.30;45.70
9393;DHT22;4736;52.508;13.422;2023-08-21T15:53:57;27.20;46.10
9393;DHT22;4736;52.508;13.422;2023-08-21T15:57:02;27.30;45.90
9393;DHT22;4736;52.508;13.422;2023-08-21T16:00:07;27.20;46.30
9393;DHT22;4736;52.508;13.422;2023-08-21T16:03:14;27.10;46.60
9393;DHT22;4736;52.508;13.422;2023-08-21T16:06:17;26.90;46.80
9393;DHT22;4736;52.508;13.422;2023-08-21T16:09:20;26.90;47.50
9393;DHT22;4736;52.508;13.422;2023-08-21T16:12:23;26.80;46.70
9393;DHT22;4736;52.508;13.422;2023-08-21T16:15:28;26.60;47.40
9393;DHT22;4736;52.508;13.422;2023-08-21T16:18:32;26.50;46.90
9393;DHT22;4736;52.508;13.422;2023-08-21T16:21:39;26.40;47.10
9393;DHT22;4736;52.508;13.422;2023-08-21T16:24:42;26.40;47.20
9393;DHT22;4736;52.508;13.422;2023-08-21T16:27:45;26.40;47.10
9393;DHT22;4736;52.508;13.422;2023-08-21T16:30:48;26.20;47.10
9393;DHT22;4736;52.508;13.422;2023-08-21T16:33:55;26.10;47.70
9393;DHT22;4736;52.508;13.422;2023-08-21T16:36:59;26.00;47.60
9393;DHT22;4736;52.508;13.422;2023-08-21T16:40:02;26.00;47.80
9393;DHT22;4736;52.508;13.422;2023-08-21T16:43:06;25.90;48.10
9393;DHT22;4736;52.508;13.422;2023-08-21T16:46:10;25.80;47.90
9393;DHT22;4736;52.508;13.422;2023-08-21T16:49:14;25.70;48.00
9393;DHT22;4736;52.508;13.422;2023-08-21T16:52:20;25.60;48.20
9393;DHT22;4736;52.508;13.422;2023-08-21T16:55:23;25.60;48.30
9393;DHT22;4736;52.508;13.422;2023-08-21T16:58:26;25.50;48.80
9393;DHT22;4736;52.508;13.422;2023-08-21T17:01:29;25.50;48.80
9393;DHT22;4736;52.508;13.422;2023-08-21T17:04:34;25.40;48.80
9393;DHT22;4736;52.508;13.422;2023-08-21T17:07:39;25.40;48.70
9393;DHT22;4736;52.508;13.422;2023-08-21T17:10:44;25.30;48.40
9393;DHT22;4736;52.508;13.422;2023-08-21T17:13:47;25.30;48.90
9393;DHT22;4736;52.508;13.422;2023-08-21T17:16:51;25.20;49.00
9393;DHT22;4736;52.508;13.422;2023-08-21T17:19:55;25.20;49.00
9393;DHT22;4736;52.508;13.422;2023-08-21T17:22:58;25.10;49.20
9393;DHT22;4736;52.508;13.422;2023-08-21T17:26:02;25.00;49.50
9393;DHT22;4736;52.508;13.422;2023-08-21T17:29:05;25.00;49.40
9393;DHT22;4736;52.508;13.422;2023-08-21T17:32:09;25.00;49.70
9393;DHT22;4736;52.508;13.422;2023-08-21T17:35:14;24.90;50.00
9393;DHT22;4736;52.508;13.422;2023-08-21T17:38:17;24.80;50.20
9393;DHT22;4736;52.508;13.422;2023-08-21T17:41:20;24.70;50.40
9393;DHT22;4736;52.508;13.422;2023-08-21T17:44:23;24.70;49.80
9393;DHT22;4736;52.508;13.422;2023-08-21T17:47:26;24.60;49.80
9393;DHT22;4736;52.508;13.422;2023-08-21T17:50:31;24.50;50.00
9393;DHT22;4736;52.508;13.422;2023-08-21T17:53:34;24.50;50.20
9393;DHT22;4736;52.508;13.422;2023-08-21T17:56:37;24.40;50.50
9393;DHT22;4736;52.508;13.422;2023-08-21T17:59:40;24.40;50.80
9393;DHT22;4736;52.508;13.422;2023-08-21T18:02:43;24.20;51.20
9393;DHT22;4736;52.508;13.422;2023-08-21T18:05:48;24.20;50.90
9393;DHT22;4736;52.508;13.422;2023-08-21T18:08:51;24.20;51.20
9393;DHT22;4736;52.508;13.422;2023-08-21T18:11:55;24.10;51.60
9393;DHT22;4736;52.508;13.422;2023-08-21T18:14:59;24.00;51.50
9393;DHT22;4736;52.508;13.422;2023-08-21T18:18:02;24.00;51.80
9393;DHT22;4736;52.508;13.422;2023-08-21T18:21:08;24.00;51.70
9393;DHT22;4736;52.508;13.422;2023-08-21T18:24:11;24.00;51.70
9393;DHT22;4736;52.508;13.422;2023-08-21T18:27:14;24.00;51.70
9393;DHT22;4736;52.508;13.422;2023-08-21T18:30:18;23.90;51.60
9393;DHT22;4736;52.508;13.422;2023-08-21T18:33:22;23.80;51.60
9393;DHT22;4736;52.508;13.422;2023-08-21T18:36:27;23.70;51.70
9393;DHT22;4736;52.508;13.422;2023-08-21T18:39:35;23.60;51.60
9393;DHT22;4736;52.508;13.422;2023-08-21T18:42:38;23.60;51.80
9393;DHT22;4736;52.508;13.422;2023-08-21T18:45:41;23.60;51.90
9393;DHT22;4736;52.508;13.422;2023-08-21T18:48:45;23.50;51.70
9393;DHT22;4736;52.508;13.422;2023-08-21T18:51:49;23.40;51.90
9393;DHT22;4736;52.508;13.422;2023-08-21T18:54:52;23.40;51.80
9393;DHT22;4736;52.508;13.422;2023-08-21T18:57:57;23.30;51.80
9393;DHT22;4736;52.508;13.422;2023-08-21T19:01:01;23.30;51.90
9393;DHT22;4736;52.508;13.422;2023-08-21T19:04:04;23.20;51.90
9393;DHT22;4736;52.508;13.422;2023-08-21T19:07:08;23.20;52.10
9393;DHT22;4736;52.508;13.422;2023-08-21T19:10:11;23.10;52.20
9393;DHT22;4736;52.508;13.422;2023-08-21T19:13:14;23.10;52.50
9393;DHT22;4736;52.508;13.422;2023-08-21T19:16:17;23.00;52.40
9393;DHT22;4736;52.508;13.422;2023-08-21T19:19:20;22.90;52.70
9393;DHT22;4736;52.508;13.422;2023-08-21T19:22:25;22.90;52.50
9393;DHT22;4736;52.508;13.422;2023-08-21T19:25:30;22.80;52.40
9393;DHT22;4736;52.508;13.422;2023-08-21T19:28:33;22.80;52.60
9393;DHT22;4736;52.508;13.422;2023-08-21T19:31:36;22.70;53.10
9393;DHT22;4736;52.508;13.422;2023-08-21T19:34:39;22.60;53.10
9393;DHT22;4736;52.508;13.422;2023-08-21T19:37:44;22.60;53.30
9393;DHT22;4736;52.508;13.422;2023-08-21T19:40:47;22.50;53.40